createdAt,value
2022-11-17T00:01:08.797Z,20.52
2022-11-17T00:03:38.604Z,20.52
2022-11-17T00:06:08.424Z,19.57
2022-11-17T00:08:38.400Z,23.18
2022-11-17T00:11:08.473Z,19.38
2022-11-17T00:13:57.102Z,25.27
2022-11-17T00:16:27.086Z,24.13
2022-11-17T00:19:15.451Z,22.99
2022-11-17T00:21:45.510Z,22.23
2022-11-17T00:24:18.525Z,23.18
2022-11-17T00:27:03.462Z,24.89
2022-11-17T00:29:36.242Z,24.32
2022-11-17T00:32:36.200Z,25.08
2022-11-17T00:35:06.912Z,26.79
2022-11-17T00:38:00.703Z,33.63
2022-11-17T00:40:30.970Z,25.27
2022-11-17T00:42:59.023Z,24.70
2022-11-17T00:45:27.396Z,26.79
2022-11-17T00:47:56.058Z,23.18
2022-11-17T00:50:24.505Z,25.65
2022-11-17T00:52:52.827Z,22.42
2022-11-17T00:55:21.345Z,26.60
2022-11-17T00:57:49.771Z,26.60
2022-11-17T01:00:18.335Z,25.08
2022-11-17T01:02:46.398Z,26.79
2022-11-17T01:05:15.296Z,22.23
2022-11-17T01:07:43.380Z,25.08
2022-11-17T01:10:11.943Z,23.75
2022-11-17T01:12:40.222Z,25.84
2022-11-17T01:15:09.883Z,25.46
2022-11-17T01:17:37.089Z,29.07
2022-11-17T01:20:06.672Z,27.74
2022-11-17T01:22:33.834Z,30.97
2022-11-17T01:25:05.084Z,23.37
2022-11-17T01:27:32.041Z,24.70
2022-11-17T01:30:00.613Z,24.32
2022-11-17T01:32:29.004Z,23.18
2022-11-17T01:34:57.433Z,21.09
2022-11-17T01:37:27.008Z,22.04
2022-11-17T01:39:54.300Z,23.56
2022-11-17T01:42:26.318Z,21.47
2022-11-17T01:45:22.503Z,25.65
2022-11-17T01:48:04.762Z,22.61
2022-11-17T01:50:43.228Z,23.94
2022-11-17T01:53:19.069Z,24.32
2022-11-17T01:55:58.022Z,21.66
2022-11-17T01:58:36.479Z,20.71
2022-11-17T02:01:06.427Z,21.85
2022-11-17T02:03:38.326Z,24.13
2022-11-17T02:06:16.394Z,22.23
2022-11-17T02:08:51.453Z,22.61
2022-11-17T02:11:22.906Z,19.95
2022-11-17T02:13:56.233Z,28.69
2022-11-17T02:16:24.109Z,22.23
2022-11-17T02:18:52.680Z,24.13
2022-11-17T02:22:04.157Z,18.81
2022-11-17T02:25:13.486Z,21.28
2022-11-17T02:28:26.722Z,26.79
2022-11-17T02:31:21.528Z,21.66
2022-11-17T02:34:00.236Z,20.90
2022-11-17T02:36:46.944Z,22.61
2022-11-17T02:39:23.546Z,21.47
2022-11-17T02:41:58.448Z,19.38
2022-11-17T02:44:46.415Z,24.89
2022-11-17T02:47:25.271Z,21.28
2022-11-17T02:50:06.109Z,21.47
2022-11-17T02:52:36.379Z,21.47
2022-11-17T02:55:10.701Z,22.04
2022-11-17T02:57:41.811Z,25.46
2022-11-17T03:00:20.572Z,20.14
2022-11-17T03:03:24.886Z,21.09
2022-11-17T03:06:24.211Z,19.95
2022-11-17T03:09:12.768Z,24.13
2022-11-17T03:11:59.236Z,22.04
2022-11-17T03:15:08.971Z,21.85
2022-11-17T03:18:51.368Z,24.32
2022-11-17T03:21:35.074Z,21.28
2022-11-17T03:24:19.625Z,22.61
2022-11-17T03:27:06.109Z,24.89
2022-11-17T03:29:39.170Z,23.56
2022-11-17T03:32:11.261Z,19.19
2022-11-17T03:34:57.455Z,23.37
2022-11-17T03:37:32.674Z,23.94
2022-11-17T03:40:10.606Z,20.90
2022-11-17T03:42:52.611Z,26.60
2022-11-17T03:45:32.018Z,26.03
2022-11-17T03:48:14.493Z,24.32
2022-11-17T03:51:06.391Z,24.70
2022-11-17T03:53:36.039Z,23.37
2022-11-17T03:56:39.019Z,25.84
2022-11-17T03:59:44.933Z,22.61
2022-11-17T04:02:19.250Z,26.03
2022-11-17T04:05:07.200Z,24.51
2022-11-17T04:07:47.156Z,26.03
2022-11-17T04:10:19.621Z,22.61
2022-11-17T04:13:08.556Z,28.31
2022-11-17T04:15:56.507Z,23.56
2022-11-17T04:18:27.120Z,25.08
2022-11-17T04:20:57.661Z,24.70
2022-11-17T04:23:28.303Z,23.94
2022-11-17T04:26:16.733Z,25.65
2022-11-17T04:28:50.295Z,23.75
2022-11-17T04:31:24.475Z,24.70
2022-11-17T04:34:00.125Z,25.46
2022-11-17T04:36:40.186Z,28.12
2022-11-17T04:39:12.388Z,26.98
2022-11-17T04:41:56.779Z,28.88
2022-11-17T04:44:29.692Z,29.26
2022-11-17T04:47:02.014Z,22.61
2022-11-17T04:49:33.268Z,27.55
2022-11-17T04:52:02.474Z,25.27
2022-11-17T04:54:32.317Z,24.70
2022-11-17T04:57:02.181Z,30.02
2022-11-17T04:59:31.914Z,27.93
2022-11-17T05:02:05.861Z,26.98
2022-11-17T05:04:53.665Z,22.80
2022-11-17T05:07:20.795Z,24.70
2022-11-17T05:09:48.990Z,30.21
2022-11-17T05:12:36.475Z,29.45
2022-11-17T05:15:07.256Z,27.17
2022-11-17T05:17:36.634Z,29.45
2022-11-17T05:20:07.122Z,26.60
2022-11-17T05:22:55.576Z,29.83
2022-11-17T05:25:22.832Z,31.16
2022-11-17T05:27:53.449Z,28.69
2022-11-17T05:30:23.245Z,29.83
2022-11-17T05:32:53.038Z,30.97
2022-11-17T05:35:22.921Z,29.64
2022-11-17T05:37:52.746Z,29.45
2022-11-17T05:40:22.467Z,30.78
2022-11-17T05:42:56.992Z,27.55
2022-11-17T05:45:25.441Z,29.07
2022-11-17T05:47:52.738Z,28.31
2022-11-17T05:50:22.670Z,27.55
2022-11-17T05:52:52.434Z,29.83
2022-11-17T05:55:22.283Z,30.21
2022-11-17T05:57:54.250Z,23.75
2022-11-17T06:00:23.559Z,23.75
2022-11-17T06:03:01.856Z,25.46
2022-11-17T06:05:31.127Z,26.41
2022-11-17T06:07:58.909Z,29.26
2022-11-17T06:10:28.928Z,29.07
2022-11-17T06:12:58.637Z,27.74
2022-11-17T06:15:29.792Z,28.50
2022-11-17T06:18:13.648Z,23.75
2022-11-17T06:20:49.785Z,25.27
2022-11-17T06:23:26.626Z,28.31
2022-11-17T06:26:00.100Z,27.55
2022-11-17T06:28:32.563Z,26.60
2022-11-17T06:31:02.898Z,23.94
2022-11-17T06:33:34.549Z,25.27
2022-11-17T06:36:07.507Z,25.27
2022-11-17T06:38:36.397Z,21.28
2022-11-17T06:41:08.966Z,22.42
2022-11-17T06:43:41.952Z,28.88
2022-11-17T06:46:11.693Z,22.42
2022-11-17T06:48:40.687Z,22.04
2022-11-17T06:51:08.607Z,30.97
2022-11-17T06:53:37.409Z,22.80
2022-11-17T06:56:09.513Z,25.46
2022-11-17T06:58:41.308Z,22.23
2022-11-17T07:01:14.481Z,22.04
2022-11-17T07:03:43.223Z,24.89
2022-11-17T07:06:12.619Z,24.13
2022-11-17T07:08:42.669Z,24.51
2022-11-17T07:11:16.707Z,23.94
2022-11-17T07:13:45.537Z,24.51
2022-11-17T07:16:23.463Z,21.85
2022-11-17T07:18:53.519Z,22.99
2022-11-17T07:21:25.310Z,23.56
2022-11-17T07:23:54.357Z,20.14
2022-11-17T07:26:21.544Z,24.89
2022-11-17T07:28:51.270Z,22.61
2022-11-17T07:31:21.717Z,22.80
2022-11-17T07:33:53.950Z,25.08
2022-11-17T07:36:22.867Z,18.24
2022-11-17T07:38:52.596Z,26.41
2022-11-17T07:41:22.360Z,25.46
2022-11-17T07:43:52.154Z,23.18
2022-11-17T07:46:21.902Z,19.76
2022-11-17T07:48:54.859Z,23.94
2022-11-17T07:51:21.759Z,25.46
2022-11-17T07:53:50.325Z,25.27
2022-11-17T07:56:18.723Z,20.52
2022-11-17T07:58:46.980Z,20.52
2022-11-17T08:01:15.655Z,25.65
2022-11-17T08:03:46.049Z,21.28
2022-11-17T08:06:14.251Z,22.04
2022-11-17T08:08:42.780Z,24.32
2022-11-17T08:11:12.892Z,21.09
2022-11-17T08:13:42.845Z,25.27
2022-11-17T08:16:12.597Z,23.37
2022-11-17T08:18:40.726Z,26.79
2022-11-17T08:21:15.022Z,22.80
2022-11-17T08:23:42.956Z,26.98
2022-11-17T08:26:12.564Z,24.89
2022-11-17T08:28:42.673Z,26.03
2022-11-17T08:31:11.505Z,23.94
2022-11-17T08:33:39.987Z,24.89
2022-11-17T08:36:09.881Z,23.37
2022-11-17T08:38:37.666Z,23.37
2022-11-17T08:41:08.437Z,24.13
2022-11-17T08:43:37.553Z,23.75
2022-11-17T08:46:05.842Z,24.89
2022-11-17T08:48:34.939Z,23.56
2022-11-17T08:51:08.794Z,24.89
2022-11-17T08:53:38.051Z,24.89
2022-11-17T08:56:10.884Z,26.22
2022-11-17T08:58:44.858Z,22.80
2022-11-17T09:01:16.224Z,25.65
2022-11-17T09:03:46.850Z,21.85
2022-11-17T09:06:17.791Z,28.50
2022-11-17T09:08:46.959Z,28.50
2022-11-17T09:11:16.663Z,26.41
2022-11-17T09:13:47.016Z,25.84
2022-11-17T09:16:17.249Z,27.17
2022-11-17T09:18:46.451Z,26.03
2022-11-17T09:21:16.510Z,27.93
2022-11-17T09:23:46.296Z,28.12
2022-11-17T09:26:16.932Z,26.03
2022-11-17T09:28:46.482Z,28.12
2022-11-17T09:31:20.638Z,26.22
2022-11-17T09:33:48.412Z,27.55
2022-11-17T09:36:18.444Z,27.36
2022-11-17T09:38:48.673Z,23.37
2022-11-17T09:41:39.681Z,31.54
2022-11-17T09:44:40.866Z,27.36
2022-11-17T09:48:42.259Z,29.83
2022-11-17T09:51:11.471Z,30.97
2022-11-17T09:54:23.461Z,33.44
2022-11-17T09:56:57.901Z,30.78
2022-11-17T09:59:32.261Z,33.25
2022-11-17T10:02:02.064Z,28.12
2022-11-17T10:04:31.818Z,32.30
2022-11-17T10:07:03.960Z,38.19
2022-11-17T10:09:42.242Z,34.39
2022-11-17T10:12:27.229Z,31.16
2022-11-17T10:14:56.140Z,36.10
2022-11-17T10:17:24.295Z,33.25
2022-11-17T10:19:52.746Z,31.73
2022-11-17T10:22:41.929Z,36.86
2022-11-17T10:25:49.008Z,30.21
2022-11-17T10:28:32.114Z,30.40
2022-11-17T10:31:12.882Z,30.40
2022-11-17T10:33:46.858Z,26.98
2022-11-17T10:36:30.244Z,30.59
2022-11-17T10:39:01.028Z,38.95
2022-11-17T10:41:42.666Z,34.77
2022-11-17T10:44:12.251Z,27.93
2022-11-17T10:47:02.948Z,26.22
2022-11-17T10:49:36.486Z,34.39
2022-11-17T10:52:18.802Z,29.64
2022-11-17T10:54:49.754Z,26.79
2022-11-17T10:57:22.362Z,33.25
2022-11-17T10:59:57.774Z,33.06
2022-11-17T11:02:33.914Z,31.54
2022-11-17T11:05:14.038Z,27.36
2022-11-17T11:07:44.939Z,31.16
2022-11-17T11:10:34.495Z,31.35
2022-11-17T11:13:19.569Z,24.89
2022-11-17T11:15:49.577Z,26.60
2022-11-17T11:18:21.839Z,29.83
2022-11-17T11:21:22.301Z,30.97
2022-11-17T11:24:27.980Z,31.16
2022-11-17T11:27:02.056Z,29.45
2022-11-17T11:29:43.558Z,34.77
2022-11-17T11:32:48.267Z,26.60
2022-11-17T11:36:15.135Z,29.07
2022-11-17T11:39:28.903Z,29.64
2022-11-17T11:42:52.262Z,26.98
2022-11-17T11:45:49.327Z,27.17
2022-11-17T11:48:36.944Z,28.69
2022-11-17T11:51:26.388Z,28.50
2022-11-17T11:54:23.902Z,26.79
2022-11-17T11:56:54.705Z,32.11
2022-11-17T11:59:43.267Z,26.98
2022-11-17T12:02:11.464Z,23.37
2022-11-17T12:05:05.504Z,26.98
2022-11-17T12:08:10.577Z,26.22
2022-11-17T12:11:00.741Z,25.46
2022-11-17T12:13:30.866Z,22.42
2022-11-17T12:16:19.211Z,27.36
2022-11-17T12:18:48.945Z,28.31
2022-11-17T12:21:28.994Z,30.97
2022-11-17T12:24:29.615Z,22.04
2022-11-17T12:27:34.522Z,28.12
2022-11-17T12:30:25.915Z,28.50
2022-11-17T12:32:55.824Z,25.65
2022-11-17T12:35:32.173Z,22.04
2022-11-17T12:38:31.236Z,23.18
2022-11-17T12:40:59.272Z,25.08
2022-11-17T12:43:29.841Z,24.70
2022-11-17T12:46:18.719Z,28.12
2022-11-17T12:49:16.050Z,26.60
2022-11-17T12:52:00.858Z,24.70
2022-11-17T12:55:20.355Z,24.89
2022-11-17T12:58:17.094Z,25.08
2022-11-17T13:01:30.735Z,23.37
2022-11-17T13:04:19.086Z,24.70
2022-11-17T13:07:16.843Z,24.13
2022-11-17T13:09:59.933Z,22.61
2022-11-17T13:12:32.537Z,25.08
2022-11-17T13:15:05.557Z,22.99
2022-11-17T13:17:42.786Z,23.94
2022-11-17T13:20:30.657Z,24.89
2022-11-17T13:23:18.786Z,22.61
2022-11-17T13:26:28.284Z,21.47
2022-11-17T13:29:14.337Z,23.18
2022-11-17T13:31:44.374Z,21.47
2022-11-17T13:34:19.099Z,23.37
2022-11-17T13:36:54.909Z,25.65
2022-11-17T13:39:27.907Z,24.32
2022-11-17T13:42:02.179Z,24.32
2022-11-17T13:44:32.911Z,22.04
2022-11-17T13:47:47.699Z,24.70
2022-11-17T13:50:37.531Z,21.85
2022-11-17T13:53:26.200Z,24.89
2022-11-17T13:55:56.033Z,24.32
2022-11-17T13:58:40.850Z,21.28
2022-11-17T14:01:13.789Z,21.28
2022-11-17T14:03:43.774Z,22.61
2022-11-17T14:06:14.505Z,22.23
2022-11-17T14:09:04.594Z,21.09
2022-11-17T14:11:34.453Z,22.99
2022-11-17T14:14:14.319Z,22.61
2022-11-17T14:16:45.461Z,20.33
2022-11-17T14:19:15.240Z,24.13
2022-11-17T14:22:30.526Z,25.08
2022-11-17T14:25:01.343Z,23.18
2022-11-17T14:27:31.796Z,29.26
2022-11-17T14:30:01.733Z,20.90
2022-11-17T14:32:32.441Z,21.66
2022-11-17T14:35:02.252Z,24.32
2022-11-17T14:37:32.555Z,22.61
2022-11-17T14:40:05.075Z,24.89
2022-11-17T14:42:36.338Z,22.23
2022-11-17T14:45:08.988Z,22.42
2022-11-17T14:47:38.753Z,23.18
2022-11-17T14:50:18.356Z,25.27
2022-11-17T14:52:48.184Z,23.75
2022-11-17T14:55:17.996Z,22.99
2022-11-17T14:57:48.957Z,19.95
2022-11-17T15:00:20.883Z,24.70
2022-11-17T15:02:51.192Z,22.80
2022-11-17T15:05:20.993Z,22.42
2022-11-17T15:07:50.866Z,22.23
2022-11-17T15:10:20.685Z,18.43
2022-11-17T15:12:50.549Z,21.09
2022-11-17T15:15:19.713Z,22.42
2022-11-17T15:17:47.326Z,22.42
2022-11-17T15:20:18.995Z,25.46
2022-11-17T15:22:52.482Z,23.18
2022-11-17T15:25:22.248Z,30.97
2022-11-17T15:27:54.131Z,39.71
2022-11-17T15:30:23.964Z,25.46
2022-11-17T15:32:53.737Z,35.91
2022-11-17T15:35:24.506Z,33.82
2022-11-17T15:37:54.574Z,42.94
2022-11-17T15:40:24.464Z,28.31
2022-11-17T15:42:54.297Z,32.68
2022-11-17T15:45:24.247Z,36.10
2022-11-17T15:47:53.998Z,28.69
2022-11-17T15:50:23.764Z,26.79
2022-11-17T15:53:04.165Z,26.79
2022-11-17T15:55:35.358Z,26.41
2022-11-17T15:58:05.087Z,28.88
2022-11-17T16:00:35.417Z,29.45
2022-11-17T16:03:06.173Z,30.59
2022-11-17T16:05:35.942Z,29.45
2022-11-17T16:08:05.849Z,29.26
2022-11-17T16:10:35.699Z,30.02
2022-11-17T16:13:05.426Z,30.21
2022-11-17T16:15:35.218Z,29.64
2022-11-17T16:18:05.126Z,29.64
2022-11-17T16:20:35.054Z,30.02
2022-11-17T16:23:04.953Z,26.98
2022-11-17T16:25:41.295Z,30.02
2022-11-17T16:28:13.212Z,29.45
2022-11-17T16:30:42.987Z,31.92
2022-11-17T16:33:16.449Z,29.83
2022-11-17T16:35:46.184Z,30.97
2022-11-17T16:38:17.358Z,30.21
2022-11-17T16:40:47.182Z,29.45
2022-11-17T16:43:17.006Z,24.89
2022-11-17T16:45:46.802Z,31.92
2022-11-17T16:48:16.595Z,29.07
2022-11-17T16:50:45.043Z,29.45
2022-11-17T16:53:15.448Z,29.45
2022-11-17T16:55:44.971Z,32.49
2022-11-17T16:58:13.392Z,30.78
2022-11-17T17:00:41.841Z,33.63
2022-11-17T17:03:10.252Z,24.32
2022-11-17T17:05:40.326Z,31.16
2022-11-17T17:08:10.227Z,31.16
2022-11-17T17:10:40.052Z,28.50
2022-11-17T17:13:10.132Z,31.35
2022-11-17T17:15:40.093Z,33.44
2022-11-17T17:18:09.989Z,26.22
2022-11-17T17:20:39.779Z,31.54
2022-11-17T17:23:09.581Z,29.07
2022-11-17T17:25:39.640Z,31.16
2022-11-17T17:28:09.574Z,31.16
2022-11-17T17:30:39.483Z,29.07
2022-11-17T17:33:09.362Z,32.87
2022-11-17T17:35:36.350Z,29.26
2022-11-17T17:38:05.844Z,33.06
2022-11-17T17:40:37.987Z,34.20
2022-11-17T17:43:07.791Z,30.02
2022-11-17T17:45:40.274Z,27.17
2022-11-17T17:48:10.066Z,28.88
2022-11-17T17:50:41.447Z,30.78
2022-11-17T17:53:11.591Z,32.11
2022-11-17T17:55:41.993Z,26.03
2022-11-17T17:58:12.517Z,28.50
2022-11-17T18:00:42.380Z,31.54
2022-11-17T18:03:12.295Z,30.78
2022-11-17T18:05:42.149Z,29.26
2022-11-17T18:08:12.379Z,32.68
2022-11-17T18:10:42.245Z,35.34
2022-11-17T18:13:12.109Z,29.45
2022-11-17T18:15:42.402Z,35.91
2022-11-17T18:18:12.193Z,28.69
2022-11-17T18:20:40.479Z,24.89
2022-11-17T18:23:08.953Z,31.35
2022-11-17T18:25:37.502Z,30.02
2022-11-17T18:28:05.844Z,33.63
2022-11-17T18:30:34.204Z,30.97
2022-11-17T18:33:03.254Z,25.46
2022-11-17T18:35:31.009Z,32.87
2022-11-17T18:38:01.487Z,32.30
2022-11-17T18:40:31.235Z,33.63
2022-11-17T18:43:02.325Z,31.16
2022-11-17T18:45:32.368Z,36.86
2022-11-17T18:48:04.754Z,40.47
2022-11-17T18:50:47.516Z,42.94
2022-11-17T18:53:24.475Z,32.87
2022-11-17T18:56:19.138Z,38.00
2022-11-17T18:58:50.027Z,25.46
2022-11-17T19:01:23.600Z,39.14
2022-11-17T19:03:56.677Z,41.99
2022-11-17T19:06:26.834Z,40.28
2022-11-17T19:08:59.801Z,42.37
2022-11-17T19:11:32.695Z,42.56
2022-11-17T19:14:04.181Z,40.85
2022-11-17T19:16:42.581Z,39.71
2022-11-17T19:19:15.160Z,41.80
2022-11-17T19:21:45.459Z,38.38
2022-11-17T19:24:15.664Z,42.37
2022-11-17T19:26:45.919Z,40.28
2022-11-17T19:29:17.556Z,39.90
2022-11-17T19:31:47.961Z,43.32
2022-11-17T19:34:17.041Z,44.08
2022-11-17T19:36:47.327Z,39.90
2022-11-17T19:39:17.472Z,40.28
2022-11-17T19:41:47.745Z,40.28
2022-11-17T19:44:17.356Z,42.18
2022-11-17T19:46:47.361Z,62.89
2022-11-17T19:49:17.477Z,47.31
2022-11-17T19:51:47.303Z,43.51
2022-11-17T19:54:17.203Z,48.64
2022-11-17T19:56:48.381Z,43.32
2022-11-17T19:59:16.991Z,45.60
2022-11-17T20:01:48.975Z,38.57
2022-11-17T20:04:17.532Z,40.66
2022-11-17T20:06:50.853Z,47.50
2022-11-17T20:09:17.946Z,40.28
2022-11-17T20:11:48.007Z,44.84
2022-11-17T20:14:18.135Z,33.82
2022-11-17T20:16:47.894Z,38.95
2022-11-17T20:19:17.940Z,46.93
2022-11-17T20:21:47.971Z,36.67
2022-11-17T20:24:16.422Z,42.56
2022-11-17T20:26:47.084Z,45.79
2022-11-17T20:29:16.445Z,40.66
2022-11-17T20:31:44.606Z,42.75
2022-11-17T20:34:13.162Z,40.09
2022-11-17T20:36:41.327Z,44.46
2022-11-17T20:39:09.843Z,45.03
2022-11-17T20:41:38.260Z,46.55
2022-11-17T20:44:23.631Z,34.77
2022-11-17T20:46:55.014Z,37.43
2022-11-17T20:49:24.984Z,47.50
2022-11-17T20:51:55.477Z,46.93
2022-11-17T20:54:49.977Z,46.74
2022-11-17T20:57:18.686Z,46.36
2022-11-17T20:59:50.508Z,49.21
2022-11-17T21:02:18.256Z,36.29
2022-11-17T21:04:48.151Z,51.11
2022-11-17T21:07:18.152Z,50.16
2022-11-17T21:09:48.112Z,45.79
2022-11-17T21:12:18.686Z,49.40
2022-11-17T21:14:47.863Z,44.46
2022-11-17T21:17:36.307Z,43.70
2022-11-17T21:20:07.079Z,47.50
2022-11-17T21:22:36.578Z,42.75
2022-11-17T21:25:06.920Z,45.22
2022-11-17T21:27:36.788Z,55.29
2022-11-17T21:30:07.672Z,38.57
2022-11-17T21:32:37.045Z,45.79
2022-11-17T21:35:08.134Z,43.13
2022-11-17T21:37:37.264Z,43.13
2022-11-17T21:40:06.707Z,39.33
2022-11-17T21:42:33.898Z,42.37
2022-11-17T21:45:02.305Z,44.27
2022-11-17T21:47:30.697Z,47.12
2022-11-17T21:49:59.157Z,48.26
2022-11-17T21:52:27.502Z,41.80
2022-11-17T21:54:55.909Z,48.83
2022-11-17T21:57:24.373Z,42.75
2022-11-17T21:59:52.768Z,32.49
2022-11-17T22:02:22.535Z,46.93
2022-11-17T22:04:49.643Z,49.97
2022-11-17T22:07:18.098Z,48.26
2022-11-17T22:09:46.580Z,49.78
2022-11-17T22:12:16.356Z,49.78
2022-11-17T22:14:43.466Z,46.17
2022-11-17T22:17:11.770Z,46.55
2022-11-17T22:19:40.039Z,46.17
2022-11-17T22:22:08.663Z,44.84
2022-11-17T22:24:39.549Z,44.65
2022-11-17T22:27:08.329Z,48.83
2022-11-17T22:29:36.789Z,44.46
2022-11-17T22:32:05.367Z,40.09
2022-11-17T22:34:33.532Z,40.66
2022-11-17T22:37:02.181Z,51.11
2022-11-17T22:39:31.117Z,49.78
2022-11-17T22:41:58.869Z,43.70
2022-11-17T22:44:27.327Z,50.16
2022-11-17T22:46:55.783Z,46.74
2022-11-17T22:49:24.127Z,49.02
2022-11-17T22:52:04.690Z,51.68
2022-11-17T22:54:35.385Z,49.59
2022-11-17T22:57:05.118Z,53.20
2022-11-17T22:59:34.945Z,42.94
2022-11-17T23:02:04.752Z,49.40
2022-11-17T23:04:34.474Z,52.63
2022-11-17T23:07:04.441Z,48.64
2022-11-17T23:09:34.310Z,52.82
2022-11-17T23:12:04.281Z,48.64
2022-11-17T23:14:34.042Z,55.29
2022-11-17T23:17:03.878Z,46.17
2022-11-17T23:19:33.709Z,56.43
2022-11-17T23:22:03.514Z,45.22
2022-11-17T23:24:33.306Z,48.64
2022-11-17T23:27:03.794Z,45.22
2022-11-17T23:29:32.836Z,48.26
2022-11-17T23:32:02.559Z,43.89
2022-11-17T23:34:32.409Z,48.45
2022-11-17T23:37:03.866Z,50.54
2022-11-17T23:39:31.833Z,53.77
2022-11-17T23:42:01.711Z,44.27
2022-11-17T23:44:31.628Z,50.92
2022-11-17T23:46:59.917Z,51.11
2022-11-17T23:49:28.945Z,48.45
2022-11-17T23:51:56.805Z,50.16
2022-11-17T23:54:25.197Z,53.01
2022-11-17T23:56:53.691Z,54.34
2022-11-17T23:59:21.982Z,54.34
